Terminal Aerodrome Forecast
Issued by NWS

Home | Current Version | Previous Version | Text Only | Print | Product List | Glossary On
Versions: 1 2 3 4 5 6 7 8 9 10 11 12 13 14 15 16 17 18 19 20 21 22
000
FTAK31 PAJN 230200 AAA
TAFAJN
TAF AMD
PAJN 230206Z 2302/2324 10012G18KT 6SM -SHRA FEW010 BKN025 OVC040
      TEMPO 2302/2304 3SM -SHRA
     FM230400 10007KT P6SM -SHRA BKN050 OVC070
     FM230900 09004KT P6SM VCSH SCT050 BKN070
     FM231400 00000KT P6SM VCFG FEW005 BKN080
     FM232000 24006KT P6SM SCT100=

USA.gov is the U.S. government's official web portal to all federal, state and local government web resources and services.